Time,TemperatureF,DewpointF,PressureIn,WindDirection,WindDirectionDegrees,WindSpeedMPH,WindSpeedGustMPH,Humidity,HourlyPrecipIn,Conditions,Clouds,dailyrainin,SoftwareType,DateUTC
2013-02-18 00:00:00,31.5,29.9,26.37,South,191,2.0,6.0,94,0.00,,,-99.99,Weather View 32 v70,2013-02-18 06:00:00,
2013-02-18 00:10:00,31.5,29.9,26.37,South,189,3.0,5.0,94,0.00,,,-99.99,Weather View 32 v70,2013-02-18 06:10:00,
2013-02-18 00:15:00,31.5,29.9,26.37,South,181,0.0,5.0,94,0.00,,,-99.99,Weather View 32 v70,2013-02-18 06:15:00,
2013-02-18 00:25:00,31.1,29.6,26.37,South,189,4.0,5.0,94,0.00,,,-99.99,Weather View 32 v70,2013-02-18 06:25:00,
2013-02-18 00:35:00,30.9,29.4,26.37,SSE,163,0.0,5.0,94,0.00,,,-99.99,Weather View 32 v70,2013-02-18 06:35:00,
2013-02-18 00:40:00,30.9,29.4,26.37,South,190,0.0,5.0,94,0.00,,,-99.99,Weather View 32 v70,2013-02-18 06:40:00,
2013-02-18 00:45:00,30.9,29.4,26.37,South,187,0.0,5.0,94,0.00,,,-99.99,Weather View 32 v70,2013-02-18 06:45:00,
2013-02-18 00:55:00,30.9,29.4,26.37,South,184,0.0,5.0,94,0.00,,,-99.99,Weather View 32 v70,2013-02-18 06:55:00,
2013-02-18 01:00:00,30.9,29.4,26.37,South,191,0.0,5.0,94,0.00,,,-99.99,Weather View 32 v70,2013-02-18 07:00:00,
2013-02-18 01:05:00,30.9,29.7,26.37,South,179,0.0,5.0,95,0.00,,,-99.99,Weather View 32 v70,2013-02-18 07:05:00,
2013-02-18 01:10:00,30.9,29.7,26.37,SSW,199,3.0,5.0,95,0.00,,,-99.99,Weather View 32 v70,2013-02-18 07:10:00,
2013-02-18 01:16:00,30.9,29.7,26.37,SSW,193,0.0,5.0,95,0.00,,,-99.99,Weather View 32 v70,2013-02-18 07:16:00,
2013-02-18 01:25:00,30.7,29.5,26.37,South,169,0.0,5.0,95,0.00,,,-99.99,Weather View 32 v70,2013-02-18 07:25:00,
2013-02-18 01:30:00,30.7,29.5,26.37,South,169,0.0,5.0,95,0.00,,,-99.99,Weather View 32 v70,2013-02-18 07:30:00,
2013-02-18 01:35:00,30.7,29.5,26.37,SSE,168,0.0,5.0,95,0.00,,,-99.99,Weather View 32 v70,2013-02-18 07:35:00,
2013-02-18 01:40:00,30.7,29.5,26.37,SSW,200,0.0,6.0,95,0.00,,,-99.99,Weather View 32 v70,2013-02-18 07:40:00,
2013-02-18 01:45:00,30.9,29.7,26.37,SSE,149,0.0,6.0,95,0.00,,,-99.99,Weather View 32 v70,2013-02-18 07:45:00,
2013-02-18 01:55:00,31.6,30.4,26.37,South,190,0.0,6.0,95,0.00,,,-99.99,Weather View 32 v70,2013-02-18 07:55:00,
2013-02-18 02:00:00,32.0,30.7,26.37,WSW,256,2.0,6.0,95,0.00,,,-99.99,Weather View 32 v70,2013-02-18 08:00:00,
2013-02-18 02:10:00,32.5,31.5,26.37,WNW,298,3.0,7.0,96,0.00,,,-99.99,Weather View 32 v70,2013-02-18 08:10:00,
2013-02-18 02:15:00,32.5,31.5,26.37,West,266,3.0,7.0,96,0.00,,,-99.99,Weather View 32 v70,2013-02-18 08:15:00,
2013-02-18 02:25:00,32.7,31.7,26.37,WNW,285,3.0,7.0,96,0.00,,,-99.99,Weather View 32 v70,2013-02-18 08:25:00,
2013-02-18 02:30:00,32.7,31.7,26.37,WNW,283,4.0,7.0,96,0.00,,,-99.99,Weather View 32 v70,2013-02-18 08:30:00,
2013-02-18 02:35:00,32.9,31.9,26.37,NW,307,3.0,7.0,96,0.00,,,-99.99,Weather View 32 v70,2013-02-18 08:35:00,
2013-02-18 02:45:00,33.4,32.7,26.37,WNW,298,10.0,10.0,97,0.00,,,-99.99,Weather View 32 v70,2013-02-18 08:45:00,
2013-02-18 02:50:00,33.8,33.0,26.37,West,273,5.0,10.0,97,0.00,,,-99.99,Weather View 32 v70,2013-02-18 08:50:00,
2013-02-18 03:00:00,33.8,33.0,26.37,West,270,9.0,10.0,97,0.00,,,-99.99,Weather View 32 v70,2013-02-18 09:00:00,
2013-02-18 03:10:00,33.6,33.1,26.37,West,261,6.0,12.0,98,0.00,,,-99.99,Weather View 32 v70,2013-02-18 09:10:00,
2013-02-18 03:17:00,33.1,32.6,26.37,NW,318,6.0,12.0,98,0.00,,,-99.99,Weather View 32 v70,2013-02-18 09:17:00,
2013-02-18 03:25:00,31.1,30.3,26.37,NNW,338,6.0,13.0,97,0.00,,,-99.99,Weather View 32 v70,2013-02-18 09:25:00,
2013-02-18 03:35:00,29.8,29.1,26.37,North,11,8.0,14.0,97,0.00,,,-99.99,Weather View 32 v70,2013-02-18 09:35:00,
2013-02-18 03:40:00,29.7,28.9,26.37,North,0,8.0,14.0,97,0.00,,,-99.99,Weather View 32 v70,2013-02-18 09:40:00,
2013-02-18 03:50:00,29.3,28.6,26.37,NW,309,8.0,14.0,97,0.00,,,-99.99,Weather View 32 v70,2013-02-18 09:50:00,
2013-02-18 03:55:00,29.3,28.8,26.37,NW,320,8.0,14.0,98,0.00,,,-99.99,Weather View 32 v70,2013-02-18 09:55:00,
2013-02-18 04:00:00,29.1,28.6,26.37,North,357,5.0,14.0,98,0.00,,,-99.99,Weather View 32 v70,2013-02-18 10:00:00,
2013-02-18 04:05:00,29.1,28.6,26.37,NNW,330,8.0,14.0,98,0.00,,,-99.99,Weather View 32 v70,2013-02-18 10:05:00,
2013-02-18 04:14:00,28.8,28.3,26.37,NW,326,6.0,14.0,98,0.00,,,-99.99,Weather View 32 v70,2013-02-18 10:14:00,
2013-02-18 04:19:00,28.6,28.1,26.37,NNW,344,5.0,14.0,98,0.00,,,-99.99,Weather View 32 v70,2013-02-18 10:19:00,
2013-02-18 04:25:00,28.6,28.1,26.37,NNW,330,8.0,14.0,98,0.00,,,-99.99,Weather View 32 v70,2013-02-18 10:25:00,
2013-02-18 04:35:00,28.4,27.9,26.37,WNW,299,8.0,14.0,98,0.00,,,-99.99,Weather View 32 v70,2013-02-18 10:35:00,
2013-02-18 04:44:00,27.9,27.4,26.37,NNW,338,9.0,14.0,98,0.00,,,-99.99,Weather View 32 v70,2013-02-18 10:44:00,
2013-02-18 04:49:00,27.7,27.2,26.37,NNW,336,8.0,14.0,98,0.00,,,-99.99,Weather View 32 v70,2013-02-18 10:49:00,
2013-02-18 04:55:00,27.7,27.2,26.37,NNW,346,11.0,14.0,98,0.00,,,-99.99,Weather View 32 v70,2013-02-18 10:55:00,
2013-02-18 05:04:00,27.3,26.8,26.37,West,279,9.0,14.0,98,0.00,,,-99.99,Weather View 32 v70,2013-02-18 11:04:00,
2013-02-18 05:14:00,26.8,26.3,26.37,NNE,16,6.0,18.0,98,0.00,,,-99.99,Weather View 32 v70,2013-02-18 11:14:00,
2013-02-18 05:24:00,26.4,25.9,26.37,West,262,10.0,18.0,98,0.00,,,-99.99,Weather View 32 v70,2013-02-18 11:24:00,
2013-02-18 05:29:00,26.1,25.6,26.37,North,353,8.0,18.0,98,0.00,,,-99.99,Weather View 32 v70,2013-02-18 11:29:00,
2013-02-18 05:39:00,25.3,24.6,26.37,NNW,334,10.0,18.0,97,0.00,,,-99.99,Weather View 32 v70,2013-02-18 11:39:00,
2013-02-18 05:49:00,25.0,24.0,26.37,North,357,10.0,18.0,96,0.00,,,-99.99,Weather View 32 v70,2013-02-18 11:49:00,
2013-02-18 05:54:00,24.6,23.6,26.37,NW,315,17.0,18.0,96,0.00,,,-99.99,Weather View 32 v70,2013-02-18 11:54:00,
2013-02-18 05:59:00,24.3,23.3,26.37,NW,325,8.0,18.0,96,0.00,,,-99.99,Weather View 32 v70,2013-02-18 11:59:00,
2013-02-18 06:09:00,23.4,22.1,26.37,WNW,298,12.0,18.0,95,0.00,,,-99.99,Weather View 32 v70,2013-02-18 12:09:00,
2013-02-18 06:14:00,23.0,21.8,26.37,North,357,8.0,17.0,95,0.00,,,-99.99,Weather View 32 v70,2013-02-18 12:14:00,
2013-02-18 06:24:00,21.9,20.5,26.37,NW,325,8.0,17.0,94,0.00,,,-99.99,Weather View 32 v70,2013-02-18 12:24:00,
2013-02-18 06:29:00,21.9,20.2,26.37,West,265,11.0,17.0,93,0.00,,,-99.99,Weather View 32 v70,2013-02-18 12:29:00,
2013-02-18 06:39:00,21.4,19.4,26.37,WNW,301,11.0,17.0,92,0.00,,,-99.99,Weather View 32 v70,2013-02-18 12:39:00,
2013-02-18 06:44:00,20.7,18.7,26.37,North,357,10.0,22.0,92,0.00,,,-99.99,Weather View 32 v70,2013-02-18 12:44:00,
2013-02-18 06:49:00,19.9,17.7,26.37,North,3,8.0,22.0,91,0.00,,,-99.99,Weather View 32 v70,2013-02-18 12:49:00,
2013-02-18 06:59:00,19.0,16.8,26.37,North,353,14.0,22.0,91,0.00,,,-99.99,Weather View 32 v70,2013-02-18 12:59:00,
2013-02-18 07:04:00,18.7,16.2,26.37,North,0,11.0,22.0,90,0.00,,,-99.99,Weather View 32 v70,2013-02-18 13:04:00,
2013-02-18 07:14:00,17.6,15.2,26.37,NNW,345,14.0,23.0,90,0.00,,,-99.99,Weather View 32 v70,2013-02-18 13:14:00,
2013-02-18 07:24:00,17.1,14.4,26.37,North,353,6.0,23.0,89,0.00,,,-99.99,Weather View 32 v70,2013-02-18 13:24:00,
2013-02-18 07:29:00,16.9,14.2,26.37,North,357,10.0,23.0,89,0.00,,,-99.99,Weather View 32 v70,2013-02-18 13:29:00,
2013-02-18 07:39:00,16.2,13.2,26.37,NNE,15,11.0,23.0,88,0.00,,,-99.99,Weather View 32 v70,2013-02-18 13:39:00,
2013-02-18 07:44:00,15.8,12.9,26.37,North,9,12.0,23.0,88,0.00,,,-99.99,Weather View 32 v70,2013-02-18 13:44:00,
2013-02-18 07:54:00,15.1,11.9,26.37,NW,318,9.0,23.0,87,0.00,,,-99.99,Weather View 32 v70,2013-02-18 13:54:00,
2013-02-18 07:59:00,14.7,11.3,26.37,North,6,9.0,23.0,86,0.00,,,-99.99,Weather View 32 v70,2013-02-18 13:59:00,
2013-02-18 08:04:00,14.5,11.1,26.37,North,9,5.0,23.0,86,0.00,,,-99.99,Weather View 32 v70,2013-02-18 14:04:00,
2013-02-18 08:14:00,13.5,10.1,26.37,NW,320,9.0,20.0,86,0.00,,,-99.99,Weather View 32 v70,2013-02-18 14:14:00,
2013-02-18 08:19:00,13.5,10.1,26.37,NNW,340,8.0,17.0,86,0.00,,,-99.99,Weather View 32 v70,2013-02-18 14:19:00,
2013-02-18 08:29:00,12.9,9.5,26.37,North,357,8.0,19.0,86,0.00,,,-99.99,Weather View 32 v70,2013-02-18 14:29:00,
2013-02-18 08:34:00,12.9,9.5,26.37,NNW,339,8.0,19.0,86,0.00,,,-99.99,Weather View 32 v70,2013-02-18 14:34:00,
2013-02-18 08:44:00,12.6,9.2,26.37,North,357,11.0,19.0,86,0.00,,,-99.99,Weather View 32 v70,2013-02-18 14:44:00,
2013-02-18 08:54:00,12.6,9.2,26.37,NNW,333,8.0,19.0,86,0.00,,,-99.99,Weather View 32 v70,2013-02-18 14:54:00,
2013-02-18 08:59:00,12.4,9.0,26.37,NNW,344,9.0,19.0,86,0.00,,,-99.99,Weather View 32 v70,2013-02-18 14:59:00,
2013-02-18 09:09:00,12.0,8.6,26.37,North,357,8.0,19.0,86,0.00,,,-99.99,Weather View 32 v70,2013-02-18 15:09:00,
2013-02-18 09:19:00,11.7,8.3,26.37,North,357,8.0,19.0,86,0.00,,,-99.99,Weather View 32 v70,2013-02-18 15:19:00,
2013-02-18 09:24:00,11.3,7.9,26.37,NNW,338,8.0,19.0,86,0.00,,,-99.99,Weather View 32 v70,2013-02-18 15:24:00,
2013-02-18 09:29:00,11.1,7.8,26.37,North,353,11.0,17.0,86,0.00,,,-99.99,Weather View 32 v70,2013-02-18 15:29:00,
2013-02-18 09:39:00,11.1,7.8,26.37,North,353,11.0,17.0,86,0.00,,,-99.99,Weather View 32 v70,2013-02-18 15:39:00,
2013-02-18 09:45:00,10.9,7.6,26.37,NNE,32,11.0,17.0,86,0.00,,,-99.99,Weather View 32 v70,2013-02-18 15:45:00,
2013-02-18 09:50:00,10.9,7.6,26.37,North,3,8.0,17.0,86,0.00,,,-99.99,Weather View 32 v70,2013-02-18 15:50:00,
2013-02-18 10:00:00,10.9,7.6,26.37,North,0,15.0,17.0,86,0.00,,,-99.99,Weather View 32 v70,2013-02-18 16:00:00,
2013-02-18 10:05:00,10.9,7.6,26.37,North,357,15.0,20.0,86,0.00,,,-99.99,Weather View 32 v70,2013-02-18 16:05:00,
2013-02-18 10:15:00,10.9,7.6,26.37,North,353,10.0,20.0,86,0.00,,,-99.99,Weather View 32 v70,2013-02-18 16:15:00,
2013-02-18 10:20:00,11.1,7.8,26.37,North,353,8.0,20.0,86,0.00,,,-99.99,Weather View 32 v70,2013-02-18 16:20:00,
2013-02-18 10:30:00,11.3,7.9,26.37,North,2,10.0,20.0,86,0.00,,,-99.99,Weather View 32 v70,2013-02-18 16:30:00,
2013-02-18 10:35:00,10.9,7.6,26.37,ESE,102,8.0,20.0,86,0.00,,,-99.99,Weather View 32 v70,2013-02-18 16:35:00,
2013-02-18 10:45:00,10.2,6.9,26.37,NW,326,13.0,20.0,86,0.00,,,-99.99,Weather View 32 v70,2013-02-18 16:45:00,
2013-02-18 10:50:00,10.2,6.9,26.37,North,357,8.0,20.0,86,0.00,,,-99.99,Weather View 32 v70,2013-02-18 16:50:00,
2013-02-18 11:00:00,10.0,6.7,26.37,North,1,10.0,22.0,86,0.00,,,-99.99,Weather View 32 v70,2013-02-18 17:00:00,
2013-02-18 11:15:00,10.4,7.0,26.37,NNE,21,15.0,22.0,86,0.00,,,-99.99,Weather View 32 v70,2013-02-18 17:15:00,
2013-02-18 11:20:00,10.2,6.9,26.37,NW,326,8.0,22.0,86,0.00,,,-99.99,Weather View 32 v70,2013-02-18 17:20:00,
2013-02-18 11:25:00,10.4,7.0,26.37,North,357,9.0,22.0,86,0.00,,,-99.99,Weather View 32 v70,2013-02-18 17:25:00,
2013-02-18 11:35:00,10.4,7.0,26.37,WSW,241,11.0,22.0,86,0.00,,,-99.99,Weather View 32 v70,2013-02-18 17:35:00,
2013-02-18 11:45:00,10.0,6.7,26.37,North,353,8.0,22.0,86,0.00,,,-99.99,Weather View 32 v70,2013-02-18 17:45:00,
2013-02-18 11:50:00,10.0,6.7,26.37,North,5,11.0,22.0,86,0.00,,,-99.99,Weather View 32 v70,2013-02-18 17:50:00,
2013-02-18 11:55:00,10.0,6.7,26.37,NNE,23,9.0,19.0,86,0.00,,,-99.99,Weather View 32 v70,2013-02-18 17:55:00,
2013-02-18 12:00:00,9.7,6.3,26.37,North,8,11.0,19.0,86,0.00,,,-99.99,Weather View 32 v70,2013-02-18 18:00:00,
2013-02-18 12:05:00,9.5,6.2,26.37,North,353,18.0,19.0,86,0.00,,,-99.99,Weather View 32 v70,2013-02-18 18:05:00,
2013-02-18 12:10:00,9.5,6.2,26.37,North,357,10.0,19.0,86,0.00,,,-99.99,Weather View 32 v70,2013-02-18 18:10:00,
2013-02-18 12:20:00,9.3,6.0,26.37,NNE,27,9.0,19.0,86,0.00,,,-99.99,Weather View 32 v70,2013-02-18 18:20:00,
2013-02-18 12:25:00,9.3,6.0,26.37,NNE,28,13.0,19.0,86,0.00,,,-99.99,Weather View 32 v70,2013-02-18 18:25:00,
2013-02-18 12:30:00,9.1,5.8,26.37,NNW,345,8.0,19.0,86,0.00,,,-99.99,Weather View 32 v70,2013-02-18 18:30:00,
2013-02-18 12:35:00,9.1,5.8,26.37,North,350,11.0,19.0,86,0.00,,,-99.99,Weather View 32 v70,2013-02-18 18:35:00,
2013-02-18 12:40:00,9.1,5.8,26.37,NNE,15,11.0,18.0,86,0.00,,,-99.99,Weather View 32 v70,2013-02-18 18:40:00,
2013-02-18 12:50:00,8.8,5.5,26.37,NW,319,15.0,18.0,86,0.00,,,-99.99,Weather View 32 v70,2013-02-18 18:50:00,
2013-02-18 12:55:00,8.6,5.3,26.37,North,7,11.0,18.0,86,0.00,,,-99.99,Weather View 32 v70,2013-02-18 18:55:00,
2013-02-18 13:05:00,7.9,4.6,26.37,NNW,330,11.0,18.0,86,0.00,,,-99.99,Weather View 32 v70,2013-02-18 19:05:00,
2013-02-18 13:10:00,7.5,4.2,26.37,North,357,8.0,17.0,86,0.00,,,-99.99,Weather View 32 v70,2013-02-18 19:10:00,
2013-02-18 13:15:00,7.5,4.2,26.37,WNW,285,6.0,17.0,86,0.00,,,-99.99,Weather View 32 v70,2013-02-18 19:15:00,
2013-02-18 13:23:00,7.9,4.6,26.37,NNW,332,10.0,17.0,86,0.00,,,-99.99,Weather View 32 v70,2013-02-18 19:23:00,
2013-02-18 13:30:00,7.9,4.6,26.37,NNE,20,8.0,17.0,86,0.00,,,-99.99,Weather View 32 v70,2013-02-18 19:30:00,
2013-02-18 13:35:00,7.7,4.4,26.37,NNW,333,11.0,17.0,86,0.00,,,-99.99,Weather View 32 v70,2013-02-18 19:35:00,
2013-02-18 13:44:00,7.2,3.9,26.37,NNW,342,13.0,17.0,86,0.00,,,-99.99,Weather View 32 v70,2013-02-18 19:44:00,
2013-02-18 13:49:00,7.0,3.7,26.37,North,10,11.0,17.0,86,0.00,,,-99.99,Weather View 32 v70,2013-02-18 19:49:00,
2013-02-18 13:54:00,6.6,3.3,26.37,NNW,348,8.0,17.0,86,0.00,,,-99.99,Weather View 32 v70,2013-02-18 19:54:00,
2013-02-18 14:00:00,6.4,3.2,26.37,North,4,11.0,17.0,86,0.00,,,-99.99,Weather View 32 v70,2013-02-18 20:00:00,
2013-02-18 14:09:00,6.4,3.2,26.37,NNW,335,6.0,17.0,86,0.00,,,-99.99,Weather View 32 v70,2013-02-18 20:09:00,
2013-02-18 14:19:00,6.3,3.0,26.37,NE,51,13.0,18.0,86,0.00,,,-99.99,Weather View 32 v70,2013-02-18 20:19:00,
2013-02-18 14:24:00,6.3,3.0,26.37,North,353,12.0,18.0,86,0.00,,,-99.99,Weather View 32 v70,2013-02-18 20:24:00,
2013-02-18 14:29:00,6.3,3.0,26.37,North,0,11.0,18.0,86,0.00,,,-99.99,Weather View 32 v70,2013-02-18 20:29:00,
2013-02-18 14:39:00,6.3,3.0,26.37,North,357,9.0,18.0,86,0.00,,,-99.99,Weather View 32 v70,2013-02-18 20:39:00,
2013-02-18 14:44:00,6.1,2.8,26.37,NNW,338,6.0,18.0,86,0.00,,,-99.99,Weather View 32 v70,2013-02-18 20:44:00,
2013-02-18 14:49:00,6.1,2.8,26.37,NNE,16,9.0,18.0,86,0.00,,,-99.99,Weather View 32 v70,2013-02-18 20:49:00,
2013-02-18 14:54:00,5.9,2.6,26.37,North,0,8.0,18.0,86,0.00,,,-99.99,Weather View 32 v70,2013-02-18 20:54:00,
2013-02-18 14:59:00,5.5,2.3,26.37,WNW,293,13.0,18.0,86,0.00,,,-99.99,Weather View 32 v70,2013-02-18 20:59:00,
2013-02-18 15:09:00,5.4,2.1,26.37,North,357,10.0,18.0,86,0.00,,,-99.99,Weather View 32 v70,2013-02-18 21:09:00,
2013-02-18 15:14:00,5.0,1.7,26.37,NW,307,13.0,17.0,86,0.00,,,-99.99,Weather View 32 v70,2013-02-18 21:14:00,
2013-02-18 15:24:00,4.8,1.6,26.37,North,0,13.0,17.0,86,0.00,,,-99.99,Weather View 32 v70,2013-02-18 21:24:00,
2013-02-18 15:29:00,4.6,1.4,26.37,North,5,11.0,17.0,86,0.00,,,-99.99,Weather View 32 v70,2013-02-18 21:29:00,
2013-02-18 15:34:00,4.5,1.2,26.37,NNW,345,7.0,17.0,86,0.00,,,-99.99,Weather View 32 v70,2013-02-18 21:34:00,
2013-02-18 15:39:00,4.5,1.2,26.37,NNW,332,8.0,17.0,86,0.00,,,-99.99,Weather View 32 v70,2013-02-18 21:39:00,
2013-02-18 15:45:00,4.6,1.4,26.37,NNW,331,8.0,16.0,86,0.00,,,-99.99,Weather View 32 v70,2013-02-18 21:45:00,
2013-02-18 15:54:00,4.5,1.2,26.37,NNW,340,8.0,16.0,86,0.00,,,-99.99,Weather View 32 v70,2013-02-18 21:54:00,
2013-02-18 15:59:00,4.3,1.0,26.37,North,353,8.0,16.0,86,0.00,,,-99.99,Weather View 32 v70,2013-02-18 21:59:00,
2013-02-18 16:09:00,4.1,0.9,26.37,NNE,24,8.0,16.0,86,0.00,,,-99.99,Weather View 32 v70,2013-02-18 22:09:00,
2013-02-18 16:14:00,4.1,0.9,26.37,NNW,327,11.0,15.0,86,0.00,,,-99.99,Weather View 32 v70,2013-02-18 22:14:00,
2013-02-18 16:19:00,3.9,0.7,26.37,NW,326,11.0,15.0,86,0.00,,,-99.99,Weather View 32 v70,2013-02-18 22:19:00,
2013-02-18 16:29:00,3.7,0.5,26.37,NNW,348,8.0,15.0,86,0.00,,,-99.99,Weather View 32 v70,2013-02-18 22:29:00,
2013-02-18 16:34:00,3.6,0.3,26.37,NNE,17,8.0,20.0,86,0.00,,,-99.99,Weather View 32 v70,2013-02-18 22:34:00,
2013-02-18 16:39:00,3.7,0.5,26.37,North,0,8.0,20.0,86,0.00,,,-99.99,Weather View 32 v70,2013-02-18 22:39:00,
2013-02-18 16:44:00,3.6,0.3,26.37,NNW,338,4.0,20.0,86,0.00,,,-99.99,Weather View 32 v70,2013-02-18 22:44:00,
2013-02-18 16:54:00,3.7,0.5,26.37,East,101,9.0,20.0,86,0.00,,,-99.99,Weather View 32 v70,2013-02-18 22:54:00,
2013-02-18 17:04:00,3.4,0.1,26.37,North,11,9.0,20.0,86,0.00,,,-99.99,Weather View 32 v70,2013-02-18 23:04:00,
2013-02-18 17:10:00,3.4,0.1,26.37,North,357,11.0,20.0,86,0.00,,,-99.99,Weather View 32 v70,2013-02-18 23:10:00,
2013-02-18 17:19:00,2.8,-0.4,26.37,NNE,12,13.0,20.0,86,0.00,,,-99.99,Weather View 32 v70,2013-02-18 23:19:00,
2013-02-18 17:25:00,2.5,-0.7,26.37,NNE,15,6.0,20.0,86,0.00,,,-99.99,Weather View 32 v70,2013-02-18 23:25:00,
2013-02-18 17:34:00,1.6,-1.6,26.37,NW,316,6.0,15.0,86,0.00,,,-99.99,Weather View 32 v70,2013-02-18 23:34:00,
2013-02-18 17:39:00,1.6,-1.6,26.37,WNW,284,9.0,15.0,86,0.00,,,-99.99,Weather View 32 v70,2013-02-18 23:39:00,
2013-02-18 17:44:00,1.6,-1.6,26.37,West,259,8.0,15.0,86,0.00,,,-99.99,Weather View 32 v70,2013-02-18 23:44:00,
2013-02-18 17:49:00,1.6,-1.6,26.37,NNW,337,6.0,15.0,86,0.00,,,-99.99,Weather View 32 v70,2013-02-18 23:49:00,
2013-02-18 17:54:00,1.6,-1.6,26.37,NNE,24,11.0,15.0,86,0.00,,,-99.99,Weather View 32 v70,2013-02-18 23:54:00,
2013-02-18 17:59:00,1.4,-1.8,26.37,NNW,339,6.0,15.0,86,0.00,,,-99.99,Weather View 32 v70,2013-02-18 23:59:00,
2013-02-18 18:04:00,1.2,-2.0,26.37,NNW,345,10.0,15.0,86,0.00,,,-99.99,Weather View 32 v70,2013-02-19 00:04:00,
2013-02-18 18:14:00,0.9,-2.3,26.37,NE,38,10.0,17.0,86,0.00,,,-99.99,Weather View 32 v70,2013-02-19 00:14:00,
2013-02-18 18:24:00,0.7,-2.5,26.37,North,0,8.0,17.0,86,0.00,,,-99.99,Weather View 32 v70,2013-02-19 00:24:00,
2013-02-18 18:29:00,0.5,-2.7,26.37,NNW,344,8.0,17.0,86,0.00,,,-99.99,Weather View 32 v70,2013-02-19 00:29:00,
2013-02-18 18:34:00,0.3,-2.9,26.37,NNW,337,8.0,17.0,86,0.00,,,-99.99,Weather View 32 v70,2013-02-19 00:34:00,
2013-02-18 18:44:00,0.1,-3.0,26.37,North,4,10.0,17.0,86,0.00,,,-99.99,Weather View 32 v70,2013-02-19 00:44:00,
2013-02-18 18:49:00,0.0,-3.2,26.37,WNW,297,13.0,17.0,86,0.00,,,-99.99,Weather View 32 v70,2013-02-19 00:49:00,
2013-02-18 18:54:00,0.0,-3.2,26.37,North,357,10.0,17.0,86,0.00,,,-99.99,Weather View 32 v70,2013-02-19 00:54:00,
2013-02-18 18:59:00,0.0,-3.2,26.37,NNW,348,8.0,17.0,86,0.00,,,-99.99,Weather View 32 v70,2013-02-19 00:59:00,
2013-02-18 19:09:00,0.0,-3.2,26.37,North,0,5.0,17.0,86,0.00,,,-99.99,Weather View 32 v70,2013-02-19 01:09:00,
2013-02-18 19:14:00,0.0,-3.2,26.37,NNW,344,10.0,17.0,86,0.00,,,-99.99,Weather View 32 v70,2013-02-19 01:14:00,
2013-02-18 19:19:00,0.0,-3.2,26.37,North,6,6.0,15.0,86,0.00,,,-99.99,Weather View 32 v70,2013-02-19 01:19:00,
2013-02-18 19:24:00,0.0,-3.2,26.37,NNW,338,4.0,14.0,86,0.00,,,-99.99,Weather View 32 v70,2013-02-19 01:24:00,
2013-02-18 19:29:00,0.0,-3.2,26.37,North,1,6.0,14.0,86,0.00,,,-99.99,Weather View 32 v70,2013-02-19 01:29:00,
2013-02-18 19:35:00,0.0,-3.2,26.37,NNW,336,8.0,14.0,86,0.00,,,-99.99,Weather View 32 v70,2013-02-19 01:35:00,
2013-02-18 20:05:00,-0.4,-3.6,26.37,North,349,5.0,13.0,86,99.99,,,-99.99,Weather View 32 v70,2013-02-19 02:05:00,
2013-02-18 20:10:00,-0.4,-3.6,26.37,NW,307,11.0,13.0,86,99.99,,,-99.99,Weather View 32 v70,2013-02-19 02:10:00,
2013-02-18 20:20:00,0.0,-3.2,26.37,NNW,346,6.0,13.0,86,99.99,,,-99.99,Weather View 32 v70,2013-02-19 02:20:00,
2013-02-18 20:25:00,0.0,-3.2,26.37,NNW,342,9.0,18.0,86,99.99,,,-99.99,Weather View 32 v70,2013-02-19 02:25:00,
2013-02-18 20:30:00,0.0,-3.2,26.37,NNW,340,6.0,18.0,86,99.99,,,-99.99,Weather View 32 v70,2013-02-19 02:30:00,
2013-02-18 20:40:00,0.0,-3.2,26.37,North,357,5.0,18.0,86,0.00,,,-99.99,Weather View 32 v70,2013-02-19 02:40:00,
2013-02-18 20:49:00,0.1,-3.0,26.37,NW,322,6.0,18.0,86,0.00,,,-99.99,Weather View 32 v70,2013-02-19 02:49:00,
2013-02-18 20:59:00,0.3,-2.9,26.37,North,357,11.0,18.0,86,0.00,,,-99.99,Weather View 32 v70,2013-02-19 02:59:00,
2013-02-18 21:09:00,0.3,-2.9,26.37,NNW,344,9.0,18.0,86,0.00,,,-99.99,Weather View 32 v70,2013-02-19 03:09:00,
2013-02-18 21:19:00,0.3,-2.9,26.37,NW,311,13.0,18.0,86,0.00,,,-99.99,Weather View 32 v70,2013-02-19 03:19:00,
2013-02-18 21:29:00,0.3,-2.9,26.37,NW,305,9.0,15.0,86,0.00,,,-99.99,Weather View 32 v70,2013-02-19 03:29:00,
2013-02-18 21:34:00,0.3,-2.9,26.37,NW,312,8.0,15.0,86,0.00,,,-99.99,Weather View 32 v70,2013-02-19 03:34:00,
2013-02-18 21:44:00,0.3,-2.9,26.37,North,349,14.0,15.0,86,0.00,,,-99.99,Weather View 32 v70,2013-02-19 03:44:00,
2013-02-18 21:49:00,0.3,-2.9,26.37,NNW,338,8.0,15.0,86,0.00,,,-99.99,Weather View 32 v70,2013-02-19 03:49:00,
2013-02-18 21:54:00,0.3,-2.9,26.37,NNW,338,8.0,15.0,86,0.00,,,-99.99,Weather View 32 v70,2013-02-19 03:54:00,
2013-02-18 22:04:00,0.3,-2.9,26.37,North,2,10.0,15.0,86,0.00,,,-99.99,Weather View 32 v70,2013-02-19 04:04:00,
2013-02-18 22:09:00,0.3,-2.9,26.37,North,357,8.0,15.0,86,0.00,,,-99.99,Weather View 32 v70,2013-02-19 04:09:00,
2013-02-18 22:19:00,0.5,-2.7,26.37,NW,312,9.0,15.0,86,0.00,,,-99.99,Weather View 32 v70,2013-02-19 04:19:00,
2013-02-18 22:24:00,0.5,-2.7,26.37,North,357,11.0,15.0,86,0.00,,,-99.99,Weather View 32 v70,2013-02-19 04:24:00,
2013-02-18 22:29:00,0.3,-2.9,26.37,NNE,24,9.0,15.0,86,0.00,,,-99.99,Weather View 32 v70,2013-02-19 04:29:00,
2013-02-18 22:40:00,0.3,-2.9,26.37,North,9,8.0,15.0,86,0.00,,,-99.99,Weather View 32 v70,2013-02-19 04:40:00,
2013-02-18 22:50:00,0.3,-2.9,26.37,North,5,8.0,15.0,86,0.00,,,-99.99,Weather View 32 v70,2013-02-19 04:50:00,
2013-02-18 23:00:00,0.1,-3.0,26.37,NNW,345,8.0,15.0,86,0.00,,,-99.99,Weather View 32 v70,2013-02-19 05:00:00,
2013-02-18 23:05:00,0.1,-3.0,26.37,NNW,345,8.0,15.0,86,0.00,,,-99.99,Weather View 32 v70,2013-02-19 05:05:00,
2013-02-18 23:15:00,-0.2,-3.4,26.37,WNW,301,6.0,15.0,86,0.00,,,-99.99,Weather View 32 v70,2013-02-19 05:15:00,
2013-02-18 23:20:00,-0.2,-3.4,26.37,NNE,21,5.0,15.0,86,0.00,,,-99.99,Weather View 32 v70,2013-02-19 05:20:00,
2013-02-18 23:25:00,-0.2,-3.4,26.37,North,353,6.0,15.0,86,0.00,,,-99.99,Weather View 32 v70,2013-02-19 05:25:00,
2013-02-18 23:29:00,-0.4,-3.6,26.37,North,0,6.0,15.0,86,0.00,,,-99.99,Weather View 32 v70,2013-02-19 05:29:00,
2013-02-18 23:34:00,-0.6,-3.8,26.37,ENE,59,6.0,15.0,86,0.00,,,-99.99,Weather View 32 v70,2013-02-19 05:34:00,
2013-02-18 23:39:00,-0.6,-3.8,26.37,NNW,340,8.0,15.0,86,0.00,,,-99.99,Weather View 32 v70,2013-02-19 05:39:00,
2013-02-18 23:44:00,-0.6,-3.8,26.37,NE,56,6.0,15.0,86,0.00,,,-99.99,Weather View 32 v70,2013-02-19 05:44:00,
2013-02-18 23:54:00,-0.8,-3.9,26.37,NNW,348,8.0,15.0,86,0.00,,,-99.99,Weather View 32 v70,2013-02-19 05:54:00,
2013-02-18 23:59:00,-0.9,-4.1,26.37,NNW,330,8.0,15.0,86,0.00,,,-99.99,Weather View 32 v70,2013-02-19 05:59:00,